Time;durP1;ratioP1;P1;durP2;ratioP2;P2;SDS_P1;SDS_P2;PMS_P1;PMS_P2;Temp;Humidity;BMP_temperature;BMP_pressure;BME280_temperature;BME280_humidity;BME280_pressure;Samples;Min_cycle;Max_cycle;Signal;HPM_P1;HPM_P2
2022/09/14 00:01:23;;;;;;;3.15;0.70;;;;;;;17.70;65.88;101002.72;5018356;28;101511;-31
2022/09/14 00:04:00;;;;;;;2.55;0.52;;;;;;;17.70;66.50;101007.34;5036546;28;99343;-30
2022/09/14 00:06:27;;;;;;;1.90;0.70;;;;;;;17.68;66.32;101006.59;5035043;28;96647;-30
2022/09/14 00:08:54;;;;;;;3.80;0.80;;;;;;;17.72;66.10;101002.59;5018741;28;96842;-30
2022/09/14 00:11:22;;;;;;;3.22;0.50;;;;;;;17.69;66.64;100992.78;5018116;28;102741;-31
2022/09/14 00:13:48;;;;;;;3.22;0.65;;;;;;;17.68;66.37;100992.91;5018214;28;98920;-30
2022/09/14 00:16:19;;;;;;;2.35;0.80;;;;;;;17.70;66.22;100988.16;5017965;28;97865;-30
2022/09/14 00:18:49;;;;;;;3.92;0.68;;;;;;;17.66;66.40;100983.94;5036595;28;96703;-29
2022/09/14 00:21:15;;;;;;;0.63;0.50;;;;;;;17.61;66.26;100978.88;5017698;28;101301;-31
2022/09/14 00:23:41;;;;;;;1.42;0.65;;;;;;;17.61;66.47;100979.78;5035390;27;120642;-30
2022/09/14 00:26:11;;;;;;;1.77;0.50;;;;;;;17.58;66.37;100969.06;5018514;28;96861;-32
2022/09/14 00:28:42;;;;;;;1.73;0.75;;;;;;;17.57;66.36;100972.81;5018596;28;96796;-31
2022/09/14 00:31:08;;;;;;;2.85;0.68;;;;;;;17.54;66.49;100973.09;5017998;28;101186;-30
2022/09/14 00:33:34;;;;;;;0.22;0.22;;;;;;;17.57;66.37;100971.97;5036213;28;97319;-29
2022/09/14 00:36:08;;;;;;;3.72;0.80;;;;;;;17.56;66.87;100967.47;5018203;28;96881;-31
2022/09/14 00:38:34;;;;;;;1.00;0.50;;;;;;;17.56;66.83;100971.06;5036733;28;96616;-30
2022/09/14 00:41:01;;;;;;;1.23;0.60;;;;;;;17.59;67.19;100972.66;5017665;28;100835;-30
2022/09/14 00:43:26;;;;;;;3.47;0.55;;;;;;;17.56;66.63;100962.00;5017625;28;101014;-30
2022/09/14 00:46:00;;;;;;;1.70;0.55;;;;;;;17.55;67.07;100958.38;5035554;28;96590;-30
2022/09/14 00:48:27;;;;;;;1.77;1.13;;;;;;;17.49;66.89;100953.44;5018063;28;96760;-30
2022/09/14 00:50:53;;;;;;;2.05;0.82;;;;;;;17.48;66.63;100951.72;5017655;28;101404;-33
2022/09/14 00:53:19;;;;;;;2.92;0.80;;;;;;;17.45;66.75;100952.00;5035990;28;97765;-30
2022/09/14 00:55:44;;;;;;;1.05;0.52;;;;;;;17.44;66.33;100942.03;5036343;28;96586;-31
2022/09/14 00:58:10;;;;;;;1.42;0.75;;;;;;;17.38;66.59;100937.13;5035969;28;96802;-30
2022/09/14 01:00:35;;;;;;;2.20;0.50;;;;;;;17.38;66.66;100931.66;5035776;28;97964;-30
2022/09/14 01:03:01;;;;;;;0.80;0.38;;;;;;;17.37;66.66;100928.03;5036199;28;97754;-30
2022/09/14 01:05:48;;;;;;;8.70;1.35;;;;;;;17.38;66.80;100924.28;5035869;28;96649;-30
2022/09/14 01:08:40;;;;;;;4.13;1.23;;;;;;;17.36;67.79;100922.69;5036230;28;96670;-30
2022/09/14 01:11:15;;;;;;;0.63;0.60;;;;;;;17.38;67.52;100917.97;5016923;28;100912;-30
2022/09/14 01:14:37;;;;;;;2.00;0.90;;;;;;;17.43;67.48;100923.03;5017154;28;100554;-30
2022/09/14 01:17:11;;;;;;;1.77;0.57;;;;;;;17.41;67.29;100918.53;4977875;28;97040;-30
2022/09/14 01:19:52;;;;;;;0.80;0.68;;;;;;;17.40;67.48;100910.47;5035539;28;96727;-31
2022/09/14 01:22:22;;;;;;;2.20;0.90;;;;;;;17.40;67.01;100907.75;5035267;28;99307;-30
2022/09/14 01:24:53;;;;;;;2.45;0.75;;;;;;;17.42;67.85;100913.91;5017193;28;101011;-30
2022/09/14 01:27:40;;;;;;;1.23;0.65;;;;;;;17.45;67.58;100918.25;5017287;28;96700;-30
2022/09/14 01:30:10;;;;;;;1.30;0.50;;;;;;;17.37;67.42;100908.84;5017885;28;96745;-30
2022/09/14 01:32:41;;;;;;;0.50;0.50;;;;;;;17.34;67.42;100914.59;5017126;28;101405;-30
2022/09/14 01:35:36;;;;;;;3.72;0.93;;;;;;;17.34;67.78;100905.53;5017016;28;101172;-30
2022/09/14 01:38:08;;;;;;;0.40;0.38;;;;;;;17.30;67.39;100901.31;5035230;28;96501;-29
2022/09/14 01:40:46;;;;;;;0.30;0.30;;;;;;;17.32;67.85;100910.28;5017139;28;96820;-30
2022/09/14 01:43:20;;;;;;;2.92;0.63;;;;;;;17.35;67.68;100910.88;5035276;28;97871;-30
2022/09/14 01:45:50;;;;;;;1.15;0.63;;;;;;;17.32;67.52;100908.41;5016874;28;100492;-30
2022/09/14 01:48:20;;;;;;;3.20;0.60;;;;;;;17.31;67.85;100903.09;5035423;28;96516;-29
2022/09/14 01:50:49;;;;;;;1.65;0.70;;;;;;;17.26;67.68;100899.88;5016998;28;96821;-30
2022/09/14 01:53:45;;;;;;;2.78;0.65;;;;;;;17.30;67.99;100899.44;5033602;28;101122;-29
2022/09/14 01:56:34;;;;;;;1.17;0.50;;;;;;;17.30;67.94;100899.44;5035299;28;97401;-30
2022/09/14 01:59:09;;;;;;;0.95;0.35;;;;;;;17.26;67.71;100892.53;5016902;28;96752;-29
2022/09/14 02:01:42;;;;;;;3.70;0.85;;;;;;;17.24;67.83;100882.72;5017068;28;96799;-30
2022/09/14 02:04:12;;;;;;;5.00;0.73;;;;;;;17.26;67.59;100892.53;5016077;28;100926;-31
2022/09/14 02:06:41;;;;;;;4.88;0.75;;;;;;;17.23;67.46;100889.19;5035053;28;98311;-31
2022/09/14 02:09:12;;;;;;;1.25;0.60;;;;;;;17.21;67.39;100878.41;5016810;28;96591;-30
2022/09/14 02:11:39;;;;;;;1.58;0.45;;;;;;;17.20;67.28;100879.38;5016581;28;96787;-31
2022/09/14 02:14:05;;;;;;;1.00;0.50;;;;;;;17.20;68.19;100872.03;5034665;28;97764;-30
2022/09/14 02:16:30;;;;;;;3.35;0.70;;;;;;;17.24;67.72;100880.00;5015958;28;100835;-29
2022/09/14 02:18:57;;;;;;;1.27;0.60;;;;;;;17.18;67.39;100874.06;5034760;28;96470;-30
2022/09/14 02:21:26;;;;;;;3.40;0.68;;;;;;;17.18;67.52;100878.66;5035160;28;96832;-31
2022/09/14 02:23:52;;;;;;;3.47;0.80;;;;;;;17.15;67.74;100870.72;5016126;28;100727;-30
2022/09/14 02:26:20;;;;;;;4.95;0.60;;;;;;;17.09;67.45;100866.66;5034489;28;97863;-33
2022/09/14 02:28:45;;;;;;;2.00;0.68;;;;;;;17.08;67.53;100872.25;5019856;28;96607;-31
2022/09/14 02:31:32;;;;;;;1.27;0.60;;;;;;;17.09;67.80;100869.41;5040228;28;96744;-30
2022/09/14 02:34:14;;;;;;;2.03;0.80;;;;;;;17.06;67.63;100858.72;5022833;28;99015;-30
2022/09/14 02:36:52;;;;;;;1.25;0.52;;;;;;;17.02;67.49;100856.38;5022964;28;100777;-31
2022/09/14 02:39:48;;;;;;;0.93;0.60;;;;;;;17.01;67.33;100855.50;5023208;28;96593;-30
2022/09/14 02:42:36;;;;;;;1.05;0.57;;;;;;;17.00;67.62;100848.31;5041274;28;96521;-30
2022/09/14 02:45:26;;;;;;;2.95;0.55;;;;;;;16.94;67.72;100838.78;5022804;28;101121;-30
2022/09/14 02:48:26;;;;;;;2.95;0.63;;;;;;;16.97;67.95;100844.00;5023040;28;101138;-30
2022/09/14 02:50:58;;;;;;;3.95;0.65;;;;;;;16.89;67.83;100830.09;5041139;28;96591;-30
2022/09/14 02:53:34;;;;;;;5.55;0.73;;;;;;;16.90;68.10;100829.13;5041501;28;96532;-29
2022/09/14 02:56:04;;;;;;;6.15;0.80;;;;;;;16.92;68.09;100840.81;5022168;28;101003;-30
2022/09/14 02:58:38;;;;;;;0.93;0.55;;;;;;;16.94;68.49;100841.50;5022606;28;100866;-30
2022/09/14 03:01:05;;;;;;;1.23;0.57;;;;;;;16.91;68.66;100835.44;5022718;28;96702;-30
2022/09/14 03:03:30;;;;;;;3.05;0.85;;;;;;;16.87;68.37;100826.63;5022801;28;96971;-30
2022/09/14 03:05:56;;;;;;;2.55;0.35;;;;;;;16.87;68.72;100825.78;5040626;28;99334;-30
2022/09/14 03:08:23;;;;;;;2.72;0.77;;;;;;;16.83;68.00;100818.81;5022470;28;100556;-29
2022/09/14 03:10:48;;;;;;;1.98;0.90;;;;;;;16.83;68.34;100818.81;5022744;28;96580;-30
2022/09/14 03:13:13;;;;;;;2.75;1.02;;;;;;;16.85;68.27;100825.03;5040581;28;103837;-30
2022/09/14 03:15:39;;;;;;;5.13;0.95;;;;;;;16.82;68.04;100825.31;5040154;28;105696;-29
2022/09/14 03:18:29;;;;;;;1.73;0.60;;;;;;;16.82;68.68;100826.19;5039755;28;114703;-31
2022/09/14 03:21:02;;;;;;;2.80;0.65;;;;;;;16.81;68.44;100818.13;5040365;28;96730;-31
2022/09/14 03:23:27;;;;;;;4.00;0.85;;;;;;;16.82;68.66;100815.22;5022429;28;96744;-30
2022/09/14 03:25:52;;;;;;;1.83;0.70;;;;;;;16.83;68.60;100811.50;5039701;28;115944;-29
2022/09/14 03:28:18;;;;;;;1.65;0.85;;;;;;;16.81;68.70;100809.91;5039708;28;124410;-30
2022/09/14 03:30:43;;;;;;;0.82;0.52;;;;;;;16.81;68.54;100805.31;5039844;28;109798;-31
2022/09/14 03:33:08;;;;;;;1.67;0.93;;;;;;;16.80;68.54;100798.09;5040931;28;96792;-29
2022/09/14 03:35:34;;;;;;;3.10;1.20;;;;;;;16.77;68.74;100795.59;5040167;28;99690;-31
2022/09/14 03:38:01;;;;;;;0.85;0.75;;;;;;;16.79;69.05;100798.25;5040495;28;99097;-31
2022/09/14 03:40:27;;;;;;;1.10;0.70;;;;;;;16.79;69.10;100790.91;5037216;27;96593;-30
2022/09/14 03:42:52;;;;;;;1.88;0.80;;;;;;;16.74;69.01;100794.00;5037289;28;96761;-30
2022/09/14 03:45:19;;;;;;;3.13;0.98;;;;;;;16.65;69.44;100788.47;5036300;28;99310;-32
2022/09/14 03:47:45;;;;;;;2.25;1.30;;;;;;;16.64;69.41;100793.09;5018673;28;101489;-30
2022/09/14 03:50:14;;;;;;;1.58;1.02;;;;;;;16.65;69.68;100794.81;5018941;28;96493;-30
2022/09/14 03:52:40;;;;;;;3.35;1.48;;;;;;;16.61;69.22;100792.47;5018945;28;96952;-32
2022/09/14 03:55:08;;;;;;;1.75;0.75;;;;;;;16.58;69.53;100792.75;5036404;28;109143;-30
2022/09/14 03:57:33;;;;;;;3.92;0.90;;;;;;;16.59;69.75;100789.91;5018635;28;101159;-30
2022/09/14 03:59:58;;;;;;;1.88;0.95;;;;;;;16.60;69.99;100798.97;5037197;28;96427;-31
2022/09/14 04:02:24;;;;;;;1.63;1.23;;;;;;;16.56;69.80;100795.63;5036964;28;111921;-29
2022/09/14 04:04:49;;;;;;;4.65;1.00;;;;;;;16.56;69.92;100801.97;5036824;28;97902;-32
2022/09/14 04:07:15;;;;;;;3.42;0.98;;;;;;;16.60;69.57;100793.50;5036474;28;99620;-32
2022/09/14 04:09:41;;;;;;;2.92;1.13;;;;;;;16.59;69.72;100789.91;5017992;28;96536;-30
2022/09/14 04:12:07;;;;;;;2.30;1.10;;;;;;;16.62;70.06;100799.69;5018454;28;96899;-29
2022/09/14 04:14:32;;;;;;;3.72;0.80;;;;;;;16.62;70.01;100805.16;5036718;28;97924;-30
2022/09/14 04:16:58;;;;;;;3.92;0.95;;;;;;;16.62;70.19;100805.16;5036235;28;97353;-30
2022/09/14 04:19:23;;;;;;;1.73;0.90;;;;;;;16.63;69.63;100813.22;5037101;28;96577;-31
2022/09/14 04:21:48;;;;;;;1.92;0.93;;;;;;;16.62;69.55;100821.56;5036932;28;96821;-30
2022/09/14 04:24:14;;;;;;;3.53;1.15;;;;;;;16.62;69.65;100814.22;5035918;28;104435;-30
2022/09/14 04:26:39;;;;;;;2.80;0.90;;;;;;;16.59;69.83;100805.41;5036866;28;97871;-30
2022/09/14 04:29:05;;;;;;;3.05;1.00;;;;;;;16.59;69.88;100803.56;5036619;28;96613;-30
2022/09/14 04:31:31;;;;;;;1.67;1.08;;;;;;;16.64;70.07;100814.13;5036391;28;96748;-30
2022/09/14 04:33:57;;;;;;;5.25;1.10;;;;;;;16.65;70.36;100810.38;5017419;28;100894;-29
2022/09/14 04:36:27;;;;;;;3.40;0.88;;;;;;;16.60;70.45;100813.50;5036313;28;97796;-30
2022/09/14 04:38:54;;;;;;;9.30;0.90;;;;;;;16.58;69.70;100803.69;5036294;28;96626;-30
2022/09/14 04:41:21;;;;;;;0.82;0.70;;;;;;;16.54;69.86;100803.09;5018192;28;96840;-30
2022/09/14 04:43:49;;;;;;;2.97;0.95;;;;;;;16.52;69.69;100805.97;5017724;28;101574;-29
2022/09/14 04:46:25;;;;;;;2.47;0.73;;;;;;;16.47;69.47;100808.25;5001302;28;101363;-30
2022/09/14 04:48:51;;;;;;;1.52;0.65;;;;;;;16.46;69.36;100817.44;5036166;28;96645;-30
2022/09/14 04:51:19;;;;;;;5.05;0.90;;;;;;;16.46;69.16;100809.22;5036318;27;96844;-31
2022/09/14 04:53:48;;;;;;;4.70;0.90;;;;;;;16.38;69.10;100805.44;5017658;28;101579;-29
2022/09/14 04:56:14;;;;;;;2.00;0.40;;;;;;;16.37;69.20;100801.81;5035712;28;97803;-30
2022/09/14 04:58:48;;;;;;;2.90;0.73;;;;;;;16.38;69.41;100799.97;5017421;28;96568;-30
2022/09/14 05:01:16;;;;;;;0.90;0.63;;;;;;;16.41;69.46;100791.50;5017864;28;96791;-31
2022/09/14 05:03:42;;;;;;;2.03;0.90;;;;;;;16.42;69.22;100785.03;5017416;28;101198;-30
2022/09/14 05:06:08;;;;;;;5.50;0.57;;;;;;;16.43;69.36;100784.03;5017150;28;99054;-30
2022/09/14 05:08:35;;;;;;;2.80;0.95;;;;;;;16.38;69.47;100780.84;5035797;28;96765;-30
2022/09/14 05:11:01;;;;;;;1.33;0.63;;;;;;;16.36;69.51;100775.50;5035727;28;96908;-29
2022/09/14 05:13:26;;;;;;;2.88;1.13;;;;;;;16.35;69.86;100768.28;5034875;28;112553;-29
2022/09/14 05:15:51;;;;;;;1.17;0.68;;;;;;;16.38;69.60;100770.78;5036013;28;97862;-30
2022/09/14 05:18:17;;;;;;;1.67;0.80;;;;;;;16.39;70.22;100771.63;5035749;28;96604;-29
2022/09/14 05:20:44;;;;;;;1.10;0.80;;;;;;;16.39;69.81;100783.41;5017442;28;96845;-30
2022/09/14 05:23:10;;;;;;;1.25;0.90;;;;;;;16.38;69.77;100789.03;5016603;28;100928;-30
2022/09/14 05:25:35;;;;;;;0.90;0.65;;;;;;;16.36;70.24;100778.22;5017403;28;97866;-30
2022/09/14 05:28:01;;;;;;;1.48;0.75;;;;;;;16.34;70.32;100781.09;5035561;28;96615;-30
2022/09/14 05:30:26;;;;;;;3.08;0.82;;;;;;;16.36;70.40;100778.22;5035586;28;96816;-30
2022/09/14 05:32:51;;;;;;;2.92;0.77;;;;;;;16.37;70.98;100790.03;5035269;28;99334;-29
2022/09/14 05:35:17;;;;;;;4.18;0.80;;;;;;;16.33;70.84;100779.38;5034734;28;98780;-31
2022/09/14 05:37:42;;;;;;;1.75;0.95;;;;;;;16.36;71.08;100783.69;5035688;28;96777;-30
2022/09/14 05:40:08;;;;;;;4.45;0.93;;;;;;;16.38;70.96;100794.50;5017201;28;97820;-29
2022/09/14 05:42:34;;;;;;;4.63;0.85;;;;;;;16.42;70.89;100799.59;5016711;28;102180;-29
2022/09/14 05:44:59;;;;;;;2.05;0.77;;;;;;;16.41;71.44;100803.31;5034587;28;97818;-31
2022/09/14 05:47:28;;;;;;;0.90;0.65;;;;;;;16.38;71.27;100800.84;5034573;28;96920;-29
2022/09/14 05:49:53;;;;;;;1.92;0.68;;;;;;;16.38;71.36;100792.63;5017104;28;96940;-32
2022/09/14 05:52:19;;;;;;;1.08;0.68;;;;;;;16.40;70.96;100792.47;5033256;28;107517;-30
2022/09/14 05:54:45;;;;;;;3.13;1.15;;;;;;;16.39;70.87;100790.75;5034785;28;97809;-30
2022/09/14 05:57:22;;;;;;;1.75;0.85;;;;;;;16.39;71.78;100788.88;5035223;28;96729;-30
2022/09/14 05:59:47;;;;;;;0.65;0.55;;;;;;;16.36;71.21;100791.91;5033672;28;97097;-31
2022/09/14 06:02:13;;;;;;;1.55;0.52;;;;;;;16.37;71.24;100784.56;5033308;28;110322;-31
2022/09/14 06:04:38;;;;;;;1.75;0.70;;;;;;;16.36;70.87;100789.16;5033582;28;114328;-30
2022/09/14 06:07:03;;;;;;;3.80;0.65;;;;;;;16.35;70.92;100804.72;5034610;28;105504;-30
2022/09/14 06:09:29;;;;;;;3.08;0.85;;;;;;;16.32;71.12;100793.16;5035223;28;96568;-30
2022/09/14 06:11:54;;;;;;;0.82;0.52;;;;;;;16.25;70.62;100781.88;5034447;28;97500;-34
2022/09/14 06:14:20;;;;;;;0.98;0.60;;;;;;;16.29;71.07;100790.69;5034962;28;99875;-33
2022/09/14 06:16:45;;;;;;;1.23;0.60;;;;;;;16.23;71.05;100780.28;5034257;28;96853;-30
2022/09/14 06:19:13;;;;;;;1.63;0.73;;;;;;;16.18;71.38;100775.22;5035274;28;96574;-30
2022/09/14 06:21:38;;;;;;;1.80;0.80;;;;;;;16.18;71.22;100782.56;5016262;28;100825;-30
2022/09/14 06:24:04;;;;;;;2.80;0.88;;;;;;;16.19;71.21;100778.84;5034639;28;101515;-30
2022/09/14 06:26:29;;;;;;;4.32;0.88;;;;;;;16.21;71.03;100780.44;5035101;28;96420;-30
2022/09/14 06:28:55;;;;;;;1.83;0.70;;;;;;;16.19;70.94;100778.84;5034985;28;96800;-30
2022/09/14 06:31:24;;;;;;;3.45;0.77;;;;;;;16.20;70.93;100775.94;5034356;28;99198;-30
2022/09/14 06:33:50;;;;;;;1.15;0.57;;;;;;;16.21;70.97;100765.88;5034177;28;99170;-29
2022/09/14 06:36:19;;;;;;;1.95;0.75;;;;;;;16.22;70.75;100768.50;5015927;28;96521;-31
2022/09/14 06:38:46;;;;;;;1.75;0.43;;;;;;;16.18;70.95;100764.28;5016477;28;96914;-29
2022/09/14 06:41:16;;;;;;;2.85;1.08;;;;;;;16.16;70.65;100757.22;5016035;28;101383;-30
2022/09/14 06:43:42;;;;;;;3.15;0.82;;;;;;;16.10;70.56;100751.28;5016494;28;100750;-30
2022/09/14 06:46:10;;;;;;;2.30;0.95;;;;;;;16.16;70.55;100754.47;5034169;28;96716;-31
2022/09/14 06:48:38;;;;;;;3.58;0.73;;;;;;;16.16;70.70;100754.47;5034378;28;96902;-31
2022/09/14 06:51:19;;;;;;;2.00;0.55;;;;;;;16.10;70.74;100759.47;5016076;28;100654;-30
2022/09/14 06:53:46;;;;;;;4.72;0.70;;;;;;;16.09;70.81;100768.69;5016308;28;102871;-30
2022/09/14 06:56:12;;;;;;;0.52;0.35;;;;;;;16.07;70.81;100762.50;5016435;28;96654;-30
2022/09/14 06:58:38;;;;;;;1.52;0.57;;;;;;;16.10;70.85;100764.09;5016170;28;96945;-29
2022/09/14 07:01:05;;;;;;;2.05;0.90;;;;;;;16.11;70.77;100758.50;5033360;28;98954;-30
2022/09/14 07:03:31;;;;;;;1.35;0.75;;;;;;;16.16;70.64;100749.91;5015885;28;101008;-29
2022/09/14 07:06:09;;;;;;;3.50;1.17;;;;;;;16.18;70.48;100747.03;5016013;28;96605;-32
2022/09/14 07:08:36;;;;;;;2.95;0.98;;;;;;;16.15;70.66;100739.97;5034261;28;96655;-31
2022/09/14 07:11:02;;;;;;;2.05;0.70;;;;;;;16.21;71.05;100749.47;5015556;28;101012;-30
2022/09/14 07:13:29;;;;;;;1.80;1.15;;;;;;;16.19;70.74;100744.16;5015467;28;101039;-30
2022/09/14 07:15:55;;;;;;;2.88;0.55;;;;;;;16.20;70.89;100751.34;5017953;28;96659;-31
2022/09/14 07:18:21;;;;;;;1.42;0.60;;;;;;;16.19;70.97;100740.56;5037863;28;96733;-31
2022/09/14 07:20:47;;;;;;;3.03;0.70;;;;;;;16.21;70.78;100746.75;5019007;28;101114;-30
2022/09/14 07:23:13;;;;;;;3.20;0.90;;;;;;;16.18;70.63;100741.56;5019102;28;101300;-30
2022/09/14 07:25:38;;;;;;;3.55;0.95;;;;;;;16.21;70.57;100753.09;5036951;28;96777;-30
2022/09/14 07:28:03;;;;;;;2.47;0.80;;;;;;;16.13;71.19;100744.69;5037366;28;96586;-30
2022/09/14 07:30:29;;;;;;;3.80;0.68;;;;;;;16.17;71.10;100753.50;5037017;28;109769;-30
2022/09/14 07:32:54;;;;;;;1.00;0.55;;;;;;;16.19;71.51;100754.25;5037193;28;97793;-30
2022/09/14 07:35:19;;;;;;;3.70;1.15;;;;;;;16.17;70.95;100748.03;5037593;28;96527;-30
2022/09/14 07:37:45;;;;;;;2.45;0.65;;;;;;;16.15;70.76;100756.34;5037362;28;96815;-29
2022/09/14 07:40:11;;;;;;;1.02;0.63;;;;;;;16.15;71.03;100750.88;5036876;28;97486;-29
2022/09/14 07:42:37;;;;;;;2.05;0.70;;;;;;;16.16;70.81;100744.44;5037167;28;99447;-31
2022/09/14 07:45:05;;;;;;;1.20;0.50;;;;;;;16.18;71.09;100752.50;5019099;28;96546;-30
2022/09/14 07:47:31;;;;;;;4.13;1.48;;;;;;;16.17;71.53;100748.03;5018897;28;96810;-29
2022/09/14 07:49:56;;;;;;;1.65;0.70;;;;;;;16.16;71.07;100751.75;5036431;28;98650;-29
2022/09/14 07:52:21;;;;;;;2.83;0.70;;;;;;;16.18;71.39;100747.88;5036785;28;99365;-32
2022/09/14 07:54:47;;;;;;;1.05;0.63;;;;;;;16.17;70.89;100754.38;5036681;28;98411;-31
2022/09/14 07:57:12;;;;;;;1.63;0.82;;;;;;;16.14;71.04;100741.84;5037173;28;96774;-31
2022/09/14 07:59:38;;;;;;;1.80;0.52;;;;;;;16.09;71.13;100744.09;5036540;28;99405;-29
2022/09/14 08:02:06;;;;;;;1.13;0.50;;;;;;;16.08;71.39;100753.28;5036641;28;99319;-29
2022/09/14 08:04:34;;;;;;;2.03;0.63;;;;;;;16.04;71.02;100760.03;5018934;28;96741;-30
2022/09/14 08:07:00;;;;;;;1.35;0.57;;;;;;;16.03;70.99;100761.00;5037247;28;96911;-30
2022/09/14 08:09:26;;;;;;;4.70;0.65;;;;;;;16.07;71.07;100767.97;5018164;28;101268;-29
2022/09/14 08:11:52;;;;;;;1.92;0.85;;;;;;;16.10;71.23;100762.22;5018074;28;100876;-31
2022/09/14 08:14:17;;;;;;;6.72;0.88;;;;;;;16.11;71.68;100761.25;5036422;28;96632;-30
2022/09/14 08:16:42;;;;;;;1.67;0.65;;;;;;;16.11;71.60;100755.78;5036444;28;96451;-30
2022/09/14 08:19:15;;;;;;;1.92;0.63;;;;;;;16.13;71.25;100756.47;5036309;28;98896;-29
2022/09/14 08:21:41;;;;;;;;;;;;;;;16.17;71.54;100761.69;5018350;28;101165;-34
2022/09/14 08:24:07;;;;;;;0.73;0.47;;;;;;;16.13;71.01;100750.16;5036808;28;96951;-30
2022/09/14 08:26:35;;;;;;;2.80;1.20;;;;;;;16.13;71.14;100747.41;5036285;27;96774;-30
2022/09/14 08:29:00;;;;;;;1.45;0.50;;;;;;;16.12;71.50;100740.22;5018110;28;100855;-30
2022/09/14 08:31:27;;;;;;;1.33;0.70;;;;;;;16.10;71.45;100731.31;5037043;28;96508;-30
2022/09/14 08:34:02;;;;;;;1.15;0.57;;;;;;;16.14;71.46;100732.78;5018398;28;96555;-30
2022/09/14 08:36:31;;;;;;;0.57;0.38;;;;;;;16.17;71.23;100731.63;5018068;28;96693;-30
2022/09/14 08:38:57;;;;;;;5.18;0.73;;;;;;;16.22;70.99;100734.84;5017515;28;101238;-29
2022/09/14 08:41:39;;;;;;;1.65;0.85;;;;;;;16.20;71.11;100736.81;5017845;28;100921;-31
2022/09/14 08:44:30;;;;;;;2.25;0.80;;;;;;;16.28;70.86;100739.75;5036332;28;96589;-29
2022/09/14 08:46:58;;;;;;;1.92;0.75;;;;;;;16.35;70.54;100746.41;5036163;28;97511;-30
2022/09/14 08:49:46;;;;;;;4.70;0.93;;;;;;;16.38;70.70;100734.38;5035869;28;99595;-30
2022/09/14 08:52:22;;;;;;;5.50;0.90;;;;;;;16.47;70.36;100744.47;5036187;28;97366;-31
2022/09/14 08:54:51;;;;;;;3.40;0.80;;;;;;;16.53;70.07;100741.19;5036077;28;96534;-30
2022/09/14 08:57:20;;;;;;;3.55;1.05;;;;;;;16.57;69.78;100745.41;5034928;28;96918;-30
2022/09/14 09:00:10;;;;;;;3.47;0.98;;;;;;;16.63;69.89;100736.63;5017508;28;101261;-30
2022/09/14 09:03:03;;;;;;;3.92;0.75;;;;;;;16.68;69.96;100733.50;5035749;28;99382;-30
2022/09/14 09:05:31;;;;;;;5.63;1.00;;;;;;;16.67;69.66;100737.25;5035824;28;96596;-34
2022/09/14 09:07:56;;;;;;;5.68;1.17;;;;;;;16.67;69.67;100743.59;5036110;28;96785;-33
2022/09/14 09:10:25;;;;;;;1.25;0.77;;;;;;;16.69;69.47;100747.03;5035572;28;99382;-30
2022/09/14 09:12:54;;;;;;;5.45;0.63;;;;;;;16.71;69.34;100756.00;5035357;28;97139;-29
2022/09/14 09:15:26;;;;;;;4.90;0.70;;;;;;;16.73;69.27;100750.38;5017610;28;97960;-32
2022/09/14 09:18:07;;;;;;;3.15;1.40;;;;;;;16.73;69.32;100753.09;5035558;28;96878;-30
2022/09/14 09:20:37;;;;;;;5.15;0.75;;;;;;;16.76;69.14;100748.22;5035398;28;99394;-30
2022/09/14 09:23:13;;;;;;;2.08;0.73;;;;;;;16.76;69.47;100742.75;5017655;28;101350;-30
2022/09/14 09:26:10;;;;;;;4.45;0.88;;;;;;;16.78;69.46;100742.63;5034451;28;96594;-30
2022/09/14 09:28:47;;;;;;;4.68;1.10;;;;;;;16.74;69.58;100728.34;5009114;28;96928;-30
2022/09/14 09:31:14;;;;;;;4.03;1.02;;;;;;;16.75;69.78;100726.47;5016675;28;102600;-30
2022/09/14 09:33:40;;;;;;;2.33;0.85;;;;;;;16.74;69.93;100736.56;5016993;28;100777;-30
2022/09/14 09:36:07;;;;;;;3.80;1.00;;;;;;;16.74;69.83;100730.22;5017352;28;96629;-31
2022/09/14 09:38:33;;;;;;;2.88;0.70;;;;;;;16.75;69.46;100729.22;5016285;28;96867;-29
2022/09/14 09:41:22;;;;;;;1.67;0.88;;;;;;;16.79;69.47;100730.72;5016850;28;100977;-30
2022/09/14 09:44:05;;;;;;;2.65;0.90;;;;;;;16.77;69.48;100722.59;5035111;28;99275;-29
2022/09/14 09:46:33;;;;;;;1.88;0.95;;;;;;;16.77;69.35;100729.94;5035722;28;96631;-30
2022/09/14 09:49:04;;;;;;;4.13;0.95;;;;;;;16.79;69.29;100732.59;5017441;28;96980;-31
2022/09/14 09:51:32;;;;;;;4.55;1.10;;;;;;;16.83;69.47;100725.81;5016746;28;99013;-30
2022/09/14 09:54:17;;;;;;;0.57;0.50;;;;;;;16.85;69.16;100732.91;5016874;28;100981;-29
2022/09/14 09:56:54;;;;;;;4.10;0.75;;;;;;;16.88;69.01;100738.09;5016510;28;96579;-31
2022/09/14 09:59:41;;;;;;;1.58;0.80;;;;;;;16.90;69.46;100738.81;5035046;28;96923;-31
2022/09/14 10:02:20;;;;;;;3.90;1.00;;;;;;;16.89;69.64;100737.06;5016545;28;100878;-30
2022/09/14 10:05:05;;;;;;;1.65;1.00;;;;;;;16.93;69.21;100744.00;5034745;28;99217;-31
2022/09/14 10:07:33;;;;;;;2.55;0.70;;;;;;;16.93;69.20;100738.53;5035081;28;96743;-30
2022/09/14 10:10:08;;;;;;;5.93;0.98;;;;;;;16.94;69.58;100737.53;5016974;28;96828;-32
2022/09/14 10:12:36;;;;;;;1.65;0.75;;;;;;;16.96;69.19;100731.91;5016250;28;100605;-29
2022/09/14 10:15:24;;;;;;;2.35;1.10;;;;;;;16.96;69.43;100735.53;5016972;28;101120;-31
2022/09/14 10:17:54;;;;;;;5.72;0.90;;;;;;;16.92;69.43;100736.81;5034717;28;96754;-30
2022/09/14 10:20:22;;;;;;;3.75;1.10;;;;;;;16.89;70.06;100738.94;5016746;28;98618;-29
2022/09/14 10:22:48;;;;;;;7.80;0.80;;;;;;;16.88;69.45;100735.34;5015603;28;100870;-31
2022/09/14 10:25:13;;;;;;;1.40;0.70;;;;;;;16.84;69.48;100741.25;5034585;28;97799;-30
2022/09/14 10:27:51;;;;;;;2.42;0.82;;;;;;;16.83;69.80;100740.38;5035056;28;96610;-30
2022/09/14 10:30:39;;;;;;;3.45;1.13;;;;;;;16.83;69.80;100737.66;5034780;28;96731;-30
2022/09/14 10:33:09;;;;;;;3.63;0.88;;;;;;;16.82;69.59;100730.44;5033874;28;98933;-31
2022/09/14 10:35:46;;;;;;;1.30;0.77;;;;;;;16.86;70.21;100739.25;5016271;28;100712;-31
2022/09/14 10:38:17;;;;;;;1.45;0.60;;;;;;;16.86;69.94;100736.50;5016681;28;96584;-31
2022/09/14 10:40:47;;;;;;;1.77;0.98;;;;;;;16.81;70.02;100734.19;5035147;28;96790;-29
2022/09/14 10:43:31;;;;;;;1.30;0.90;;;;;;;16.85;69.68;100730.16;5016194;28;101704;-31
2022/09/14 10:46:03;;;;;;;3.53;0.80;;;;;;;16.87;69.58;100727.28;5016287;28;101269;-30
2022/09/14 10:48:46;;;;;;;1.88;0.90;;;;;;;16.89;69.57;100733.47;5015970;27;96631;-31
2022/09/14 10:51:44;;;;;;;1.05;0.73;;;;;;;16.86;69.82;100734.63;5038352;28;96569;-29
2022/09/14 10:54:34;;;;;;;2.00;0.90;;;;;;;16.87;69.58;100732.75;4985936;28;97973;-31
2022/09/14 10:57:26;;;;;;;1.33;0.75;;;;;;;16.91;69.89;100742.44;5038162;28;97829;-30
2022/09/14 11:00:00;;;;;;;4.13;0.80;;;;;;;16.91;69.54;100742.44;5038153;28;96583;-30
2022/09/14 11:03:14;;;;;;;3.65;1.00;;;;;;;16.92;69.80;100745.03;5019791;28;96854;-30
2022/09/14 11:05:50;;;;;;;1.80;0.80;;;;;;;16.97;69.72;100740.00;5019346;28;99209;-31
2022/09/14 11:08:28;;;;;;;3.97;0.95;;;;;;;17.02;69.60;100736.84;5019901;28;100971;-30
2022/09/14 11:11:17;;;;;;;3.22;1.10;;;;;;;17.06;69.45;100731.94;5038082;28;96502;-30
2022/09/14 11:14:03;;;;;;;2.25;0.85;;;;;;;17.12;69.23;100739.63;5007748;28;97001;-29
2022/09/14 11:16:28;;;;;;;1.75;0.88;;;;;;;17.13;69.08;100733.97;5036461;28;97995;-30
2022/09/14 11:19:08;;;;;;;2.53;0.90;;;;;;;17.12;69.25;100717.72;5037351;28;99366;-30
2022/09/14 11:21:45;;;;;;;2.25;0.77;;;;;;;17.20;69.17;100723.34;5019648;28;96817;-29
2022/09/14 11:24:21;;;;;;;4.53;1.00;;;;;;;17.25;68.78;100728.41;5037695;27;96789;-30
2022/09/14 11:27:07;;;;;;;3.60;0.77;;;;;;;17.29;68.83;100732.59;5019072;28;100854;-30
2022/09/14 11:29:39;;;;;;;1.67;0.93;;;;;;;17.34;68.44;100724.81;5019044;28;100403;-30
2022/09/14 11:32:10;;;;;;;1.73;0.52;;;;;;;17.38;68.46;100729.88;5019254;28;96563;-30
2022/09/14 11:35:02;;;;;;;3.20;0.98;;;;;;;17.48;68.10;100731.78;5019841;28;96714;-30
2022/09/14 11:37:41;;;;;;;4.37;0.97;;;;;;;17.54;68.14;100714.75;5009609;28;100927;-29
2022/09/14 11:40:35;;;;;;;4.00;0.85;;;;;;;17.67;68.27;100715.34;5037158;28;97437;-30
2022/09/14 11:43:12;;;;;;;1.30;0.80;;;;;;;17.71;68.00;100714.06;5018910;28;96684;-31